TA66 weather

Freedom Springs Ranch Airport
Pipe Creek, Texas, United States

Public forecast

Using degrees Fahrenheit for public forecast. Weather courtesy of forecast.io.

METAR (pilot weather report)

Closest report is Boerne Stage Field, 8.6 nm (16.0 km) E. Retrieved 2019/07/19 08:35 UTC (0 seconds ago):

K5C1 190835Z AUTO 18005KT 10SM SCT012 22/22 A3002 RMK AO1

TAF (pilot weather forecast)

Closest forecast is San Antonio International Airport, 23.1 nm (42.7 km) ESE. Retrieved 2019/07/19 06:39 UTC (1 hour ago):

TAF KSAT 190536Z 1906/2012 14012KT P6SM SKC FM191000 17010KT P6SM BKN010 FM191400 16013G23KT P6SM SCT025 FM192100 14014KT P6SM FEW050 SCT250